createdAt,value
2023-11-22T00:00:02.540Z,24.56
2023-11-22T00:02:29.528Z,24.50
2023-11-22T00:04:56.544Z,24.50
2023-11-22T00:07:23.509Z,24.44
2023-11-22T00:09:50.468Z,24.44
2023-11-22T00:12:17.403Z,24.38
2023-11-22T00:14:44.378Z,24.31
2023-11-22T00:17:11.439Z,24.31
2023-11-22T00:19:38.454Z,24.25
2023-11-22T00:22:05.411Z,24.25
2023-11-22T00:24:32.371Z,24.19
2023-11-22T00:26:59.336Z,24.19
2023-11-22T00:29:26.337Z,24.13
2023-11-22T00:31:53.458Z,24.13
2023-11-22T00:34:21.512Z,24.06
2023-11-22T00:36:48.586Z,24.06
2023-11-22T00:39:15.534Z,24.00
2023-11-22T00:41:42.499Z,24.00
2023-11-22T00:44:09.531Z,23.94
2023-11-22T00:46:36.586Z,23.94
2023-11-22T00:49:03.565Z,23.88
2023-11-22T00:51:30.573Z,23.88
2023-11-22T00:53:57.523Z,23.88
2023-11-22T00:56:24.481Z,23.81
2023-11-22T00:58:51.431Z,23.81
2023-11-22T01:01:18.389Z,23.75
2023-11-22T01:03:45.541Z,23.75
2023-11-22T01:06:12.498Z,23.69
2023-11-22T01:08:39.471Z,23.69
2023-11-22T01:11:06.435Z,23.69
2023-11-22T01:13:33.460Z,23.63
2023-11-22T01:16:00.432Z,23.63
2023-11-22T01:18:27.474Z,23.63
2023-11-22T01:20:54.486Z,23.56
2023-11-22T01:23:21.461Z,23.56
2023-11-22T01:25:48.469Z,23.56
2023-11-22T01:28:15.413Z,23.50
2023-11-22T01:30:42.404Z,23.50
2023-11-22T01:33:09.417Z,23.44
2023-11-22T01:35:36.415Z,23.44
2023-11-22T01:38:03.418Z,23.44
2023-11-22T01:40:30.533Z,23.38
2023-11-22T01:42:57.531Z,23.38
2023-11-22T01:45:24.505Z,23.38
2023-11-22T01:47:51.652Z,23.38
2023-11-22T01:50:18.668Z,23.31
2023-11-22T01:52:45.766Z,23.31
2023-11-22T01:55:12.733Z,23.31
2023-11-22T01:57:39.701Z,23.25
2023-11-22T02:00:07.045Z,23.25
2023-11-22T02:02:34.227Z,23.25
2023-11-22T02:05:01.327Z,23.19
2023-11-22T02:07:28.500Z,23.19
2023-11-22T02:09:55.495Z,23.19
2023-11-22T02:12:22.516Z,23.13
2023-11-22T02:14:49.643Z,23.13
2023-11-22T02:17:16.673Z,23.13
2023-11-22T02:19:43.621Z,23.13
2023-11-22T02:22:10.626Z,23.06
2023-11-22T02:24:37.598Z,23.06
2023-11-22T02:27:04.558Z,23.06
2023-11-22T02:29:31.531Z,23.00
2023-11-22T02:31:58.561Z,23.00
2023-11-22T02:34:25.577Z,23.00
2023-11-22T02:36:58.490Z,23.00
2023-11-22T02:39:30.272Z,22.94
2023-11-22T02:41:57.247Z,22.94
2023-11-22T02:44:24.205Z,22.94
2023-11-22T02:46:51.274Z,22.88
2023-11-22T02:49:18.223Z,22.88
2023-11-22T02:51:45.160Z,22.88
2023-11-22T02:54:12.134Z,22.88
2023-11-22T02:56:39.138Z,22.81
2023-11-22T02:59:06.192Z,22.81
2023-11-22T03:01:33.161Z,22.81
2023-11-22T03:04:00.319Z,22.81
2023-11-22T03:06:27.359Z,22.75
2023-11-22T03:08:54.305Z,22.75
2023-11-22T03:11:21.306Z,22.75
2023-11-22T03:13:48.289Z,22.75
2023-11-22T03:16:15.272Z,22.69
2023-11-22T03:18:42.232Z,22.69
2023-11-22T03:21:09.196Z,22.69
2023-11-22T03:23:36.207Z,22.69
2023-11-22T03:26:03.205Z,22.63
2023-11-22T03:28:30.169Z,22.63
2023-11-22T03:30:57.112Z,22.63
2023-11-22T03:33:24.151Z,22.63
2023-11-22T03:35:51.164Z,22.63
2023-11-22T03:38:18.189Z,22.56
2023-11-22T03:40:45.227Z,22.56
2023-11-22T03:43:12.170Z,22.56
2023-11-22T03:45:39.127Z,22.56
2023-11-22T03:48:06.189Z,22.56
2023-11-22T03:50:33.194Z,22.50
2023-11-22T03:53:00.227Z,22.50
2023-11-22T03:55:27.244Z,22.50
2023-11-22T03:57:54.191Z,22.50
2023-11-22T04:00:21.142Z,22.50
2023-11-22T04:02:48.186Z,22.44
2023-11-22T04:05:15.327Z,22.44
2023-11-22T04:07:42.349Z,22.44
2023-11-22T04:10:09.305Z,22.44
2023-11-22T04:12:37.108Z,22.44
2023-11-22T04:15:04.340Z,22.38
2023-11-22T04:17:31.915Z,22.38
2023-11-22T04:19:59.349Z,22.38
2023-11-22T04:22:26.307Z,22.38
2023-11-22T04:24:53.280Z,22.38
2023-11-22T04:27:20.255Z,22.31
2023-11-22T04:29:47.288Z,22.31
2023-11-22T04:32:14.316Z,22.31
2023-11-22T04:34:41.332Z,22.31
2023-11-22T04:37:08.294Z,22.31
2023-11-22T04:39:35.271Z,22.31
2023-11-22T04:42:02.286Z,22.25
2023-11-22T04:44:29.371Z,22.25
2023-11-22T04:46:56.411Z,22.25
2023-11-22T04:49:23.416Z,22.19
2023-11-22T04:51:50.461Z,22.19
2023-11-22T04:54:17.433Z,22.19
2023-11-22T04:56:44.443Z,22.19
2023-11-22T04:59:11.446Z,22.19
2023-11-22T05:01:38.486Z,22.06
2023-11-22T05:04:05.593Z,21.19
2023-11-22T05:06:32.586Z,20.69
2023-11-22T05:08:59.540Z,24.00
2023-11-22T05:11:26.566Z,31.56
2023-11-22T05:13:53.546Z,33.69
2023-11-22T05:16:20.607Z,33.13
2023-11-22T05:18:47.617Z,32.13
2023-11-22T05:21:14.574Z,26.50
2023-11-22T05:23:44.132Z,25.63
2023-11-22T05:26:12.725Z,31.69
2023-11-22T05:28:39.740Z,34.31
2023-11-22T05:31:06.761Z,35.00
2023-11-22T05:33:33.936Z,33.94
2023-11-22T05:36:00.945Z,29.00
2023-11-22T05:38:28.056Z,28.31
2023-11-22T05:40:55.101Z,33.00
2023-11-22T05:43:22.065Z,35.19
2023-11-22T05:45:49.062Z,35.56
2023-11-22T05:48:16.157Z,35.25
2023-11-22T05:50:43.378Z,31.19
2023-11-22T05:53:10.496Z,30.50
2023-11-22T05:55:37.550Z,34.13
2023-11-22T05:58:04.508Z,35.81
2023-11-22T06:00:31.581Z,36.38
2023-11-22T06:02:58.729Z,35.50
2023-11-22T06:05:25.943Z,35.38
2023-11-22T06:07:52.943Z,36.44
2023-11-22T06:10:19.910Z,36.88
2023-11-22T06:12:46.866Z,37.19
2023-11-22T06:15:13.993Z,37.44
2023-11-22T06:17:41.069Z,37.81
2023-11-22T06:20:08.174Z,38.06
2023-11-22T06:22:35.204Z,38.31
2023-11-22T06:25:02.198Z,38.56
2023-11-22T06:27:29.229Z,38.56
2023-11-22T06:29:56.207Z,38.50
2023-11-22T06:32:23.350Z,38.50
2023-11-22T06:34:50.379Z,38.38
2023-11-22T06:37:17.364Z,38.50
2023-11-22T06:39:45.311Z,38.63
2023-11-22T06:42:12.340Z,38.38
2023-11-22T06:44:39.322Z,38.38
2023-11-22T06:47:06.430Z,38.44
2023-11-22T06:49:33.415Z,38.44
2023-11-22T06:52:00.492Z,38.50
2023-11-22T06:54:27.547Z,38.56
2023-11-22T06:56:54.519Z,38.69
2023-11-22T06:59:21.579Z,38.56
2023-11-22T07:01:48.636Z,38.50
2023-11-22T07:04:15.774Z,38.50
2023-11-22T07:06:42.801Z,38.56
2023-11-22T07:09:09.793Z,38.63
2023-11-22T07:11:36.769Z,38.63
2023-11-22T07:14:03.774Z,38.69
2023-11-22T07:16:30.917Z,38.69
2023-11-22T07:18:57.931Z,38.56
2023-11-22T07:21:24.918Z,38.38
2023-11-22T07:23:53.616Z,38.19
2023-11-22T07:26:20.968Z,38.00
2023-11-22T07:28:48.038Z,37.81
2023-11-22T07:31:15.025Z,37.63
2023-11-22T07:33:42.098Z,37.44
2023-11-22T07:36:09.057Z,37.38
2023-11-22T07:38:37.419Z,37.63
2023-11-22T07:41:05.360Z,37.69
2023-11-22T07:43:32.297Z,37.63
2023-11-22T07:45:59.301Z,37.63
2023-11-22T07:48:26.289Z,37.63
2023-11-22T07:50:53.316Z,37.69
2023-11-22T07:53:20.336Z,37.75
2023-11-22T07:55:47.374Z,37.81
2023-11-22T07:58:14.348Z,37.81
2023-11-22T08:00:41.293Z,37.88
2023-11-22T08:03:08.468Z,37.94
2023-11-22T08:05:35.714Z,37.94
2023-11-22T08:08:02.768Z,38.06
2023-11-22T08:10:29.728Z,38.13
2023-11-22T08:12:56.686Z,38.25
2023-11-22T08:15:23.714Z,38.25
2023-11-22T08:17:50.752Z,38.25
2023-11-22T08:20:17.841Z,38.13
2023-11-22T08:22:44.809Z,37.94
2023-11-22T08:25:11.760Z,37.75
2023-11-22T08:27:38.722Z,37.56
2023-11-22T08:30:05.673Z,37.38
2023-11-22T08:32:32.708Z,37.19
2023-11-22T08:34:59.760Z,37.44
2023-11-22T08:37:26.718Z,37.81
2023-11-22T08:39:53.674Z,37.94
2023-11-22T08:42:20.649Z,37.94
2023-11-22T08:44:47.654Z,37.94
2023-11-22T08:47:14.652Z,38.00
2023-11-22T08:49:41.643Z,38.06
2023-11-22T08:52:08.622Z,38.19
2023-11-22T08:54:36.340Z,38.31
2023-11-22T08:57:03.420Z,38.44
2023-11-22T08:59:30.483Z,38.56
2023-11-22T09:01:57.489Z,38.63
2023-11-22T09:04:24.473Z,38.69
2023-11-22T09:06:51.530Z,38.69
2023-11-22T09:09:18.540Z,38.75
2023-11-22T09:11:45.534Z,38.88
2023-11-22T09:14:12.518Z,38.94
2023-11-22T09:16:39.470Z,38.81
2023-11-22T09:19:06.454Z,38.69
2023-11-22T09:21:33.403Z,38.69
2023-11-22T09:24:00.398Z,38.75
2023-11-22T09:26:27.373Z,38.81
2023-11-22T09:28:54.348Z,38.88
2023-11-22T09:31:21.344Z,38.94
2023-11-22T09:33:48.591Z,39.00
2023-11-22T09:36:15.608Z,39.00
2023-11-22T09:38:42.622Z,38.88
2023-11-22T09:41:09.623Z,38.69
2023-11-22T09:43:36.574Z,38.50
2023-11-22T09:46:03.565Z,38.31
2023-11-22T09:48:30.559Z,38.13
2023-11-22T09:50:57.571Z,37.94
2023-11-22T09:53:24.554Z,37.63
2023-11-22T09:55:51.540Z,36.81
2023-11-22T09:58:18.491Z,36.94
2023-11-22T10:00:45.445Z,37.31
2023-11-22T10:03:14.414Z,37.38
2023-11-22T10:05:41.790Z,37.38
2023-11-22T10:08:08.829Z,37.38
2023-11-22T10:10:35.776Z,37.38
2023-11-22T10:13:02.723Z,37.38
2023-11-22T10:15:29.703Z,37.44
2023-11-22T10:17:56.751Z,37.44
2023-11-22T10:20:23.799Z,37.44
2023-11-22T10:22:50.749Z,37.44
2023-11-22T10:25:17.734Z,37.38
2023-11-22T10:27:44.702Z,37.44
2023-11-22T10:30:11.671Z,37.38
2023-11-22T10:32:38.666Z,37.38
2023-11-22T10:35:05.660Z,37.44
2023-11-22T10:37:32.743Z,37.31
2023-11-22T10:39:59.779Z,36.75
2023-11-22T10:42:26.799Z,37.19
2023-11-22T10:44:53.792Z,37.38
2023-11-22T10:47:20.822Z,37.38
2023-11-22T10:49:47.795Z,37.50
2023-11-22T10:52:14.762Z,37.56
2023-11-22T10:54:41.727Z,37.69
2023-11-22T10:57:08.687Z,37.75
2023-11-22T10:59:35.639Z,37.81
2023-11-22T11:02:04.706Z,37.88
2023-11-22T11:04:33.195Z,37.94
2023-11-22T11:07:00.193Z,38.06
2023-11-22T11:09:27.145Z,38.13
2023-11-22T11:11:54.092Z,38.25
2023-11-22T11:14:21.166Z,38.31
2023-11-22T11:16:48.171Z,38.38
2023-11-22T11:19:15.223Z,38.44
2023-11-22T11:21:42.170Z,38.56
2023-11-22T11:24:09.115Z,38.63
2023-11-22T11:26:36.263Z,38.69
2023-11-22T11:29:03.291Z,38.56
2023-11-22T11:31:30.321Z,38.38
2023-11-22T11:33:57.292Z,38.19
2023-11-22T11:36:24.290Z,38.00
2023-11-22T11:38:52.481Z,37.88
2023-11-22T11:41:19.508Z,37.69
2023-11-22T11:43:46.504Z,37.56
2023-11-22T11:46:13.525Z,37.75
2023-11-22T11:48:40.560Z,37.88
2023-11-22T11:51:07.520Z,37.88
2023-11-22T11:53:35.019Z,37.88
2023-11-22T11:56:02.013Z,37.94
2023-11-22T11:58:29.079Z,38.00
2023-11-22T12:00:56.051Z,38.13
2023-11-22T12:03:23.193Z,38.13
2023-11-22T12:05:50.313Z,38.13
2023-11-22T12:08:17.497Z,38.13
2023-11-22T12:10:44.488Z,38.19
2023-11-22T12:13:11.457Z,38.25
2023-11-22T12:15:38.492Z,38.31
2023-11-22T12:18:05.621Z,38.31
2023-11-22T12:20:33.025Z,38.38
2023-11-22T12:23:00.137Z,38.38
2023-11-22T12:25:27.123Z,38.44
2023-11-22T12:27:54.120Z,38.56
2023-11-22T12:30:21.120Z,38.63
2023-11-22T12:32:48.180Z,38.69
2023-11-22T12:35:15.255Z,38.75
2023-11-22T12:37:42.243Z,38.81
2023-11-22T12:40:09.212Z,38.75
2023-11-22T12:42:36.251Z,38.69
2023-11-22T12:45:03.274Z,38.50
2023-11-22T12:47:30.344Z,38.31
2023-11-22T12:49:57.364Z,38.19
2023-11-22T12:52:24.330Z,38.00
2023-11-22T12:54:51.328Z,37.81
2023-11-22T12:57:20.599Z,37.06
2023-11-22T12:59:48.926Z,36.56
2023-11-22T13:02:16.021Z,37.25
2023-11-22T13:04:43.237Z,37.50
2023-11-22T13:07:10.348Z,37.50
2023-11-22T13:09:37.342Z,37.63
2023-11-22T13:12:04.396Z,37.69
2023-11-22T13:14:31.495Z,37.75
2023-11-22T13:16:58.551Z,37.75
2023-11-22T13:19:25.668Z,37.81
2023-11-22T13:21:52.717Z,37.81
2023-11-22T13:24:19.687Z,37.94
2023-11-22T13:26:46.734Z,38.00
2023-11-22T13:29:13.720Z,38.13
2023-11-22T13:31:40.909Z,38.13
2023-11-22T13:34:07.912Z,38.13
2023-11-22T13:36:34.968Z,38.00
2023-11-22T13:39:02.016Z,37.81
2023-11-22T13:41:29.051Z,37.63
2023-11-22T13:43:56.049Z,37.50
2023-11-22T13:46:23.104Z,37.44
2023-11-22T13:48:50.304Z,37.44
2023-11-22T13:51:17.279Z,37.44
2023-11-22T13:53:44.847Z,37.69
2023-11-22T13:56:12.056Z,37.88
2023-11-22T13:58:39.067Z,37.88
2023-11-22T14:01:06.136Z,37.94
2023-11-22T14:03:33.260Z,38.06
2023-11-22T14:06:00.476Z,38.19
2023-11-22T14:08:27.635Z,38.31
2023-11-22T14:10:54.637Z,38.44
2023-11-22T14:13:21.770Z,38.50
2023-11-22T14:15:48.779Z,38.56
2023-11-22T14:18:16.066Z,38.63
2023-11-22T14:20:43.087Z,38.69
2023-11-22T14:23:10.098Z,38.75
2023-11-22T14:25:37.668Z,38.81
2023-11-22T14:28:05.228Z,38.94
2023-11-22T14:30:32.367Z,39.00
2023-11-22T14:32:59.680Z,39.06
2023-11-22T14:35:26.875Z,39.00
2023-11-22T14:37:53.985Z,38.94
2023-11-22T14:40:21.054Z,38.94
2023-11-22T14:42:48.188Z,38.94
2023-11-22T14:45:15.186Z,39.00
2023-11-22T14:47:42.232Z,39.00
2023-11-22T14:50:09.222Z,38.88
2023-11-22T14:52:36.200Z,38.69
2023-11-22T14:55:03.200Z,38.56
2023-11-22T14:57:30.169Z,38.38
2023-11-22T14:59:57.316Z,38.13
2023-11-22T15:02:24.335Z,37.94
2023-11-22T15:04:51.315Z,37.75
2023-11-22T15:07:18.324Z,37.50
2023-11-22T15:09:45.440Z,37.31
2023-11-22T15:12:12.531Z,37.38
2023-11-22T15:14:39.633Z,37.31
2023-11-22T15:17:06.623Z,37.50
2023-11-22T15:19:33.645Z,37.75
2023-11-22T15:22:00.675Z,37.81
2023-11-22T15:24:27.827Z,37.88
2023-11-22T15:26:54.852Z,37.88
2023-11-22T15:29:21.895Z,38.00
2023-11-22T15:31:48.909Z,38.06
2023-11-22T15:34:15.879Z,38.13
2023-11-22T15:36:42.964Z,38.19
2023-11-22T15:39:09.933Z,38.25
2023-11-22T15:41:36.942Z,38.38
2023-11-22T15:44:03.937Z,38.44
2023-11-22T15:46:30.949Z,38.50
2023-11-22T15:48:58.020Z,38.50
2023-11-22T15:51:25.003Z,38.56
2023-11-22T15:53:51.995Z,38.69
2023-11-22T15:56:19.158Z,38.75
2023-11-22T15:58:46.323Z,38.81
2023-11-22T16:01:13.330Z,38.81
2023-11-22T16:03:40.435Z,38.88
2023-11-22T16:06:07.488Z,39.00
2023-11-22T16:08:34.562Z,39.06
2023-11-22T16:11:01.589Z,39.00
2023-11-22T16:13:28.662Z,38.88
2023-11-22T16:15:55.680Z,38.69
2023-11-22T16:18:22.883Z,38.50
2023-11-22T16:20:49.939Z,38.38
2023-11-22T16:23:17.112Z,38.19
2023-11-22T16:25:44.111Z,38.00
2023-11-22T16:28:11.105Z,37.81
2023-11-22T16:30:38.169Z,38.13
2023-11-22T16:33:05.210Z,38.25
2023-11-22T16:35:32.239Z,38.25
2023-11-22T16:37:59.249Z,38.25
2023-11-22T16:40:26.220Z,38.31
2023-11-22T16:42:53.238Z,38.44
2023-11-22T16:45:20.237Z,38.50
2023-11-22T16:47:47.286Z,38.56
2023-11-22T16:50:14.320Z,38.63
2023-11-22T16:52:41.277Z,38.63
2023-11-22T16:55:08.376Z,38.69
2023-11-22T16:57:35.431Z,38.69
2023-11-22T17:00:02.463Z,38.81
2023-11-22T17:02:29.500Z,38.94
2023-11-22T17:04:56.605Z,39.00
2023-11-22T17:07:23.621Z,39.00
2023-11-22T17:09:50.642Z,39.06
2023-11-22T17:12:17.617Z,39.13
2023-11-22T17:14:44.681Z,39.06
2023-11-22T17:17:11.671Z,39.06
2023-11-22T17:19:38.635Z,39.06
2023-11-22T17:22:05.615Z,38.94
2023-11-22T17:24:32.608Z,38.81
2023-11-22T17:26:59.731Z,38.63
2023-11-22T17:29:26.808Z,38.44
2023-11-22T17:31:53.871Z,38.25
2023-11-22T17:34:20.888Z,38.06
2023-11-22T17:36:47.892Z,37.88
2023-11-22T17:39:17.293Z,37.69
2023-11-22T17:41:44.610Z,37.88
2023-11-22T17:44:11.627Z,38.06
2023-11-22T17:46:38.678Z,38.06
2023-11-22T17:49:05.914Z,38.06
2023-11-22T17:51:32.994Z,38.13
2023-11-22T17:53:59.986Z,38.19
2023-11-22T17:56:27.016Z,38.19
2023-11-22T17:58:54.022Z,38.25
2023-11-22T18:01:20.999Z,38.31
2023-11-22T18:03:48.133Z,38.38
2023-11-22T18:06:15.215Z,38.44
2023-11-22T18:08:42.944Z,38.56
2023-11-22T18:11:09.928Z,38.63
2023-11-22T18:13:36.914Z,38.69
2023-11-22T18:16:03.930Z,38.56
2023-11-22T18:18:30.986Z,38.44
2023-11-22T18:20:58.060Z,38.31
2023-11-22T18:23:25.016Z,38.13
2023-11-22T18:25:51.993Z,37.94
2023-11-22T18:28:19.021Z,37.81
2023-11-22T18:30:45.992Z,37.63
2023-11-22T18:33:13.704Z,37.63
2023-11-22T18:35:41.097Z,37.88
2023-11-22T18:38:08.486Z,38.00
2023-11-22T18:40:35.637Z,38.00
2023-11-22T18:43:02.631Z,38.06
2023-11-22T18:45:29.639Z,38.13
2023-11-22T18:47:56.655Z,38.19
2023-11-22T18:50:24.468Z,38.31
2023-11-22T18:52:51.454Z,38.31
2023-11-22T18:55:18.420Z,38.38
2023-11-22T18:57:45.421Z,38.44
2023-11-22T19:00:12.579Z,38.50
2023-11-22T19:02:39.909Z,38.56
2023-11-22T19:05:07.030Z,38.56
2023-11-22T19:07:34.030Z,38.50
2023-11-22T19:10:01.019Z,38.38
2023-11-22T19:12:27.969Z,38.19
2023-11-22T19:14:55.014Z,38.06
2023-11-22T19:17:22.037Z,37.88
2023-11-22T19:19:49.133Z,37.75
2023-11-22T19:22:16.097Z,37.63
2023-11-22T19:24:43.080Z,37.69
2023-11-22T19:27:10.102Z,37.75
2023-11-22T19:29:37.170Z,37.75
2023-11-22T19:32:04.243Z,37.75
2023-11-22T19:34:31.225Z,37.81
2023-11-22T19:36:58.267Z,37.94
2023-11-22T19:39:25.292Z,38.00
2023-11-22T19:41:52.305Z,38.13
2023-11-22T19:44:19.286Z,38.19
2023-11-22T19:46:46.253Z,38.25
2023-11-22T19:49:13.228Z,38.38
2023-11-22T19:51:40.236Z,38.44
2023-11-22T19:54:07.265Z,38.44
2023-11-22T19:56:34.410Z,38.56
2023-11-22T19:59:01.407Z,38.69
2023-11-22T20:01:28.456Z,38.63
2023-11-22T20:03:55.601Z,38.44
2023-11-22T20:06:22.660Z,38.13
2023-11-22T20:08:49.839Z,37.94
2023-11-22T20:11:16.828Z,37.88
2023-11-22T20:13:43.816Z,37.69
2023-11-22T20:16:10.839Z,37.31
2023-11-22T20:18:37.885Z,36.94
2023-11-22T20:21:05.117Z,36.56
2023-11-22T20:23:32.170Z,36.25
2023-11-22T20:25:59.167Z,35.88
2023-11-22T20:28:26.167Z,35.63
2023-11-22T20:30:53.138Z,35.31
2023-11-22T20:33:20.337Z,35.06
2023-11-22T20:35:47.366Z,34.75
2023-11-22T20:38:14.340Z,34.50
2023-11-22T20:40:41.361Z,34.19
2023-11-22T20:43:08.323Z,33.88
2023-11-22T20:45:35.359Z,33.56
2023-11-22T20:48:02.390Z,33.25
2023-11-22T20:50:29.419Z,32.94
2023-11-22T20:52:56.386Z,32.63
2023-11-22T20:55:23.346Z,32.31
2023-11-22T20:57:50.414Z,32.00
2023-11-22T21:00:17.482Z,31.69
2023-11-22T21:02:52.139Z,31.50
2023-11-22T21:05:20.167Z,31.31
2023-11-22T21:07:47.299Z,31.13
2023-11-22T21:10:14.292Z,30.94
2023-11-22T21:12:41.401Z,30.75
2023-11-22T21:15:08.890Z,30.63
2023-11-22T21:17:41.833Z,30.50
2023-11-22T21:20:09.883Z,30.38
2023-11-22T21:22:37.158Z,30.25
2023-11-22T21:25:04.268Z,30.13
2023-11-22T21:27:31.530Z,30.00
2023-11-22T21:29:58.515Z,29.94
2023-11-22T21:32:26.923Z,29.81
2023-11-22T21:34:55.342Z,29.75
2023-11-22T21:37:22.794Z,29.69
2023-11-22T21:39:49.774Z,29.63
2023-11-22T21:42:17.659Z,29.50
2023-11-22T21:44:46.472Z,29.38
2023-11-22T21:47:13.978Z,29.31
2023-11-22T21:49:41.533Z,29.19
2023-11-22T21:52:09.042Z,29.06
2023-11-22T21:54:36.569Z,29.00
2023-11-22T21:57:04.092Z,28.88
2023-11-22T21:59:32.403Z,28.75
2023-11-22T22:01:59.960Z,28.56
2023-11-22T22:04:27.710Z,28.44
2023-11-22T22:06:55.245Z,28.31
2023-11-22T22:09:23.241Z,28.13
2023-11-22T22:11:50.747Z,28.00
2023-11-22T22:14:18.957Z,27.81
2023-11-22T22:16:46.450Z,27.75
2023-11-22T22:19:17.029Z,27.63
2023-11-22T22:21:45.658Z,27.50
2023-11-22T22:24:13.578Z,27.38
2023-11-22T22:26:41.249Z,27.31
2023-11-22T22:29:08.761Z,27.19
2023-11-22T22:31:36.317Z,27.06
2023-11-22T22:34:03.782Z,26.94
2023-11-22T22:36:31.332Z,26.88
2023-11-22T22:38:58.923Z,26.81
2023-11-22T22:41:26.379Z,26.75
2023-11-22T22:43:53.875Z,26.69
2023-11-22T22:46:22.289Z,26.63
2023-11-22T22:48:50.247Z,26.50
2023-11-22T22:51:18.136Z,26.44
2023-11-22T22:53:46.015Z,26.38
2023-11-22T22:56:13.404Z,26.31
2023-11-22T22:58:40.882Z,26.25
2023-11-22T23:01:08.450Z,26.25
2023-11-22T23:03:36.361Z,26.19
2023-11-22T23:06:04.397Z,26.19
2023-11-22T23:08:31.995Z,26.13
2023-11-22T23:10:59.037Z,26.13
2023-11-22T23:13:26.012Z,26.13
2023-11-22T23:15:52.956Z,26.13
2023-11-22T23:18:20.161Z,26.13
2023-11-22T23:20:50.088Z,26.13
2023-11-22T23:23:17.995Z,26.13
2023-11-22T23:25:45.307Z,26.13
2023-11-22T23:28:12.311Z,26.06
2023-11-22T23:30:39.319Z,26.06
2023-11-22T23:33:06.510Z,26.00
2023-11-22T23:35:33.519Z,26.00
2023-11-22T23:38:00.459Z,25.94
2023-11-22T23:40:27.431Z,25.88
2023-11-22T23:42:54.405Z,25.81
2023-11-22T23:45:21.450Z,25.75
2023-11-22T23:47:48.480Z,25.69
2023-11-22T23:50:15.523Z,25.63
2023-11-22T23:52:42.649Z,25.56
2023-11-22T23:55:09.649Z,25.44
2023-11-22T23:57:36.679Z,25.38
